Current Weather at Greece

Name ICAO Metar Transition Altitude Transition Level QNH Active Runway Elevation
ANDRAVIDA AB LGAD LGAD 192320Z 00000KT 9999 FEW020 21/19 Q1015 8000 FL90 1015 34 55
DIMOKRITOS LGAL LGAL 191920Z 05007KT 9999 FEW025 22/14 Q1016 4000 FL50 1016 07 10
ELEFTHERIOS VENIZELOS INTL LGAV LGAV 192320Z VRB01KT CAVOK 19/17 Q1015 NOSIG 9000 FL100 1015 03L 255
NEA ANCHIALOS LGBL LGBL 192250Z 00000KT 9999 FEW030 SCT080 19/19 Q1015 BLU 9000 FL100 1015 08 83
ELEFSIS LGEL LGEL 192320Z 00000KT 9999 FEW070 22/18 Q1014 9000 FL100 1014 36 21
OMIROS LGHI LGHI 191850Z VRB01KT CAVOK 19/13 Q1013 5000 FL65 1013 01 8
KING PYRROS LGIO LGIO 192320Z AUTO /////KT //// -RA ////// 16/16 Q1017 RE// 9000 FL100 1017 32 1558
NIKOS KAZANTZAKIS LGIR LGIR 192320Z 18003KT 9999 FEW025 20/19 Q1015 NOSIG 6000 FL70 1015 09 78
KEFALLINIA LGKF LGKF 191950Z 00000KT 9999 FEW018 23/21 Q1016 8000 FL90 1016 32 50
KALAMATA LGKL LGKL 192320Z AUTO 31004KT 290V350 //// // ////// 19/16 Q1014 RE// 9000 FL100 1014 35L 16
IPPOKRATIS LGKO LGKO 192250Z 31008KT CAVOK 20/19 Q1013 5000 FL65 1013 32 373
KARPATHOS LGKP LGKP 192320Z AUTO 29013KT //// -RA ////// 23/20 Q1013 RE// 6000 FL75 1013 30 62
IOANNIS KAPODISTRIAS LGKR LGKR 192320Z 21005KT 9999 SCT018TCU SCT025 BKN070 22/19 Q1015 NOSIG 5000 FL60 1015 35 6
MEGAS ALEXANDROS LGKV LGKV 191950Z 06004KT 9999 FEW030 22/15 Q1015 6000 FL70 1015 05R 9
FILIPPOS LGKZ LGKZ 192320Z AUTO 35009KT 310V040 //// -RA ////// 13/12 Q1019 RE// 9000 FL100 1019 32 1968
IFAISTOS LGLM LGLM 192250Z 02005KT 9999 FEW020 21/16 Q1015 4000 FL50 1015 04R 13
LARISSA LGLR LGLR 192250Z 00000KT 9999 SCT030 SCT080 19/18 Q1016 BLU 11000 FL120 1016 08R 239
MIKONOS LGMK LGMK 192050Z VRB03KT CAVOK 21/12 Q1014 9000 FL100 1014 34 388
ODYSSEAS ELYTIS LGMT LGMT 191950Z VRB03KT CAVOK 24/18 Q1014 4500 FL55 1014 32 21
PAROS LGPA LGPA 192320Z AUTO 01005KT //// // ////// 20/16 Q1015 RE// 4000 FL50 1015 35 86
AKTION LGPZ LGPZ 192250Z 00000KT 9999 FEW025CB 23/20 Q1015 RMK FEW180 CB W 20KM BLU 8000 FL90 1015 07L 9
DIAGORAS LGRP LGRP 192320Z 22007KT CAVOK 22/17 Q1013 NOSIG 6000 FL75 1013 07 18
ARAXOS LGRX LGRX 192150Z 00000KT 9999 FEW020 22/20 Q1015 RMK FEW070 FEW180 BLU 8000 FL90 1015 36L 46
IOANNIS DASKALOGIANNIS LGSA LGSA 192320Z 27005KT 9999 FEW012 20/19 Q1015 11000 FL120 1015 29 490
ALEXANDROS PAPADIAMANDIS LGSK LGSK 191850Z 00000KT 7000 TSRA FEW020CB SCT030 23/20 Q1015 5000 FL60 1015 02 9
ARISTARCHOS OF SAMOS LGSM LGSM 191850Z 00000KT CAVOK 22/16 Q1014 7000 FL80 1014 09 19
DIMITRIOS VIKELAS LGSO LGSO 192320Z AUTO 27008KT //// -RA ////// 21/18 Q1014 RE// 9000 FL100 1014 36 236
SANTORINI LGSR LGSR 192320Z 28006KT CAVOK 21/17 Q1014 5000 FL60 1014 34L 57
SKIROS AB LGSY LGSY 192320Z AUTO 36009KT //// // ////// 23/18 Q1015 RE// 8000 FL90 1015 35 39
TANAGRA LGTG LGTG 192250Z 00000KT 9999 FEW030 19/14 Q1016 RMK FEW070 BLU 9000 FL100 1016 28C 453
MAKEDONIA LGTS LGTS 192320Z 34011KT 9999 SCT030 19/13 Q1017 NOSIG 6000 FL70 1017 28 19
DIONISIOS SOLOMOS LGZA LGZA 191850Z 00000KT 9999 FEW018 23/19 Q1016 8000 FL90 1016